Time;durP1;ratioP1;P1;durP2;ratioP2;P2;SDS_P1;SDS_P2;PMS_P1;PMS_P2;Temp;Humidity;BMP_temperature;BMP_pressure;BME280_temperature;BME280_humidity;BME280_pressure;Samples;Min_cycle;Max_cycle;Signal;HPM_P1;HPM_P2
2021/10/23 00:05:12;;;;;;;2.63;1.25;;;10.30;99.90;;;;;;5010187;28;20037;-45
2021/10/23 00:07:38;;;;;;;4.10;1.30;;;10.40;99.90;;;;;;5009632;28;20022;-48
2021/10/23 00:10:04;;;;;;;1.35;1.25;;;10.30;99.90;;;;;;5009866;28;20096;-48
2021/10/23 00:12:30;;;;;;;1.60;1.33;;;10.30;99.90;;;;;;5009841;28;20121;-46
2021/10/23 00:14:56;;;;;;;3.45;1.52;;;10.40;99.90;;;;;;5009748;28;20057;-48
2021/10/23 00:17:23;;;;;;;5.47;1.33;;;10.30;99.90;;;;;;5009550;28;20025;-51
2021/10/23 00:19:49;;;;;;;8.73;1.48;;;10.30;99.90;;;;;;5011767;28;20399;-43
2021/10/23 00:22:14;;;;;;;5.30;1.98;;;10.30;99.90;;;;;;5016619;28;20022;-46
2021/10/23 00:24:40;;;;;;;3.10;1.25;;;10.30;99.90;;;;;;5017216;28;20033;-48
2021/10/23 00:27:06;;;;;;;4.68;1.20;;;10.30;99.90;;;;;;5017151;28;20121;-49
2021/10/23 00:29:31;;;;;;;2.10;1.10;;;10.30;99.90;;;;;;5018102;28;20041;-47
2021/10/23 00:31:57;;;;;;;5.82;1.35;;;10.20;99.90;;;;;;5018155;28;20064;-46
2021/10/23 00:34:23;;;;;;;4.50;1.38;;;10.20;99.90;;;;;;5018156;28;20506;-48
2021/10/23 00:36:49;;;;;;;2.67;1.00;;;10.20;99.90;;;;;;5018060;28;20057;-48
2021/10/23 00:39:15;;;;;;;5.15;1.38;;;10.10;99.90;;;;;;5018324;28;20029;-46
2021/10/23 00:41:41;;;;;;;3.13;1.20;;;10.10;99.90;;;;;;5017701;28;20018;-50
2021/10/23 00:44:35;;;;;;;4.78;1.45;;;10.10;99.90;;;;;;5018686;28;20029;-46
2021/10/23 00:47:05;;;;;;;4.93;2.33;;;10.00;99.90;;;;;;5019290;28;20240;-45
2021/10/23 00:49:32;;;;;;;6.93;1.40;;;10.00;99.90;;;;;;5019091;28;20084;-49
2021/10/23 00:51:58;;;;;;;3.28;1.10;;;10.10;99.90;;;;;;5019558;28;20026;-44
2021/10/23 00:54:27;;;;;;;3.97;0.98;;;10.10;99.90;;;;;;5019193;28;20479;-44
2021/10/23 00:56:54;;;;;;;6.65;2.25;;;10.10;99.90;;;;;;5019012;28;20026;-43
2021/10/23 00:59:20;;;;;;;7.18;1.67;;;10.10;99.90;;;;;;5021110;28;20110;-48
2021/10/23 01:01:48;;;;;;;1.83;1.02;;;10.00;99.90;;;;;;5025605;28;20536;-45
2021/10/23 01:04:13;;;;;;;3.10;1.88;;;9.90;99.90;;;;;;5025384;28;20038;-43
2021/10/23 01:06:39;;;;;;;1.88;0.93;;;9.90;99.90;;;;;;5024807;28;20032;-49
2021/10/23 01:09:06;;;;;;;5.90;2.22;;;9.90;99.90;;;;;;5025906;28;20044;-51
2021/10/23 01:11:31;;;;;;;5.25;1.60;;;9.80;99.90;;;;;;5019192;28;20030;-49
2021/10/23 01:13:57;;;;;;;5.95;1.10;;;9.80;99.90;;;;;;5019132;28;20036;-46
2021/10/23 01:16:23;;;;;;;5.78;1.35;;;9.80;99.90;;;;;;5018992;28;20304;-48
2021/10/23 01:18:49;;;;;;;4.70;2.25;;;9.90;99.90;;;;;;5019142;28;20084;-45
2021/10/23 01:21:22;;;;;;;3.03;1.20;;;9.80;99.90;;;;;;5022527;28;20391;-44
2021/10/23 01:23:48;;;;;;;7.05;2.50;;;9.80;99.90;;;;;;5027480;28;20083;-48
2021/10/23 01:29:44;;;;;;;5.03;1.58;;;9.80;99.90;;;;;;5030647;28;20041;-50
2021/10/23 01:32:09;;;;;;;5.75;1.20;;;9.80;99.90;;;;;;5005836;28;20029;-50
2021/10/23 01:34:35;;;;;;;3.00;1.10;;;9.80;99.90;;;;;;5024893;28;20029;-49
2021/10/23 01:37:01;;;;;;;5.97;1.40;;;9.80;99.90;;;;;;5014234;28;20117;-47
2021/10/23 01:39:27;;;;;;;5.53;1.13;;;9.90;99.90;;;;;;5012857;28;20022;-51
2021/10/23 01:41:54;;;;;;;3.88;1.10;;;9.90;99.90;;;;;;5012144;28;20036;-46
2021/10/23 01:44:28;;;;;;;2.53;1.20;;;10.00;99.90;;;;;;5012319;28;20514;-47
2021/10/23 01:46:53;;;;;;;5.85;1.30;;;10.00;99.90;;;;;;5011861;28;20037;-47
2021/10/23 01:49:19;;;;;;;3.17;1.15;;;10.10;99.90;;;;;;5013416;28;20105;-49
2021/10/23 01:51:45;;;;;;;3.90;1.90;;;10.00;99.90;;;;;;5012164;28;20457;-48
2021/10/23 01:54:10;;;;;;;5.95;1.70;;;9.90;99.90;;;;;;4995802;28;20026;-48
2021/10/23 01:56:39;;;;;;;4.22;1.23;;;9.90;99.90;;;;;;5013467;28;20388;-49
2021/10/23 01:59:05;;;;;;;5.40;1.40;;;10.00;99.90;;;;;;5011848;28;20084;-48
2021/10/23 02:01:31;;;;;;;6.80;2.15;;;9.90;99.90;;;;;;5013317;28;20025;-51
2021/10/23 02:03:56;;;;;;;3.75;1.38;;;10.00;99.90;;;;;;5012071;28;20451;-46
2021/10/23 02:06:22;;;;;;;10.18;1.58;;;10.00;99.90;;;;;;5011619;28;20028;-46
2021/10/23 02:08:48;;;;;;;9.70;1.63;;;10.00;99.90;;;;;;5011874;28;20076;-48
2021/10/23 02:11:15;;;;;;;7.32;2.17;;;9.90;99.90;;;;;;5012779;28;20483;-49
2021/10/23 02:13:41;;;;;;;6.63;2.28;;;9.90;99.90;;;;;;5011399;28;20034;-51
2021/10/23 02:16:07;;;;;;;4.20;1.58;;;9.80;99.90;;;;;;5011627;28;20075;-48
2021/10/23 02:18:32;;;;;;;3.50;1.65;;;9.70;99.90;;;;;;4995135;28;20113;-44
2021/10/23 02:20:58;;;;;;;4.03;2.08;;;9.60;99.90;;;;;;5011714;28;20545;-51
2021/10/23 02:23:24;;;;;;;4.32;1.48;;;9.60;99.90;;;;;;5011386;28;20018;-52
2021/10/23 02:25:50;;;;;;;3.40;1.45;;;9.50;99.90;;;;;;5011392;28;20049;-50
2021/10/23 02:28:16;;;;;;;6.20;1.92;;;9.50;99.90;;;;;;5011035;28;20076;-47
2021/10/23 02:30:42;;;;;;;8.15;1.70;;;9.40;99.90;;;;;;5011480;28;20033;-53
2021/10/23 02:33:07;;;;;;;4.80;1.27;;;9.50;99.90;;;;;;5011151;28;20029;-51
2021/10/23 02:35:33;;;;;;;5.40;2.50;;;9.60;99.90;;;;;;5011029;28;20408;-47
2021/10/23 02:37:59;;;;;;;7.03;2.10;;;9.60;99.90;;;;;;5010901;28;20068;-47
2021/10/23 02:40:24;;;;;;;5.65;1.77;;;9.50;99.90;;;;;;5011369;28;20395;-51
2021/10/23 02:42:50;;;;;;;5.80;1.98;;;9.40;99.90;;;;;;5010792;28;20113;-48
2021/10/23 02:45:16;;;;;;;5.03;1.63;;;9.30;99.90;;;;;;5010946;28;20080;-51
2021/10/23 02:47:41;;;;;;;4.88;2.40;;;9.30;99.90;;;;;;5010810;28;20501;-47
2021/10/23 02:50:08;;;;;;;4.18;1.80;;;9.20;99.90;;;;;;5011141;28;20036;-46
2021/10/23 02:52:33;;;;;;;7.45;2.10;;;9.10;99.90;;;;;;5010745;28;20431;-48
2021/10/23 02:54:59;;;;;;;4.25;2.08;;;9.10;99.90;;;;;;5010747;28;20037;-52
2021/10/23 02:57:25;;;;;;;6.00;2.35;;;9.10;99.90;;;;;;5010493;28;20395;-48
2021/10/23 02:59:50;;;;;;;4.63;1.92;;;9.10;99.90;;;;;;5010755;28;20061;-48
2021/10/23 03:02:16;;;;;;;7.88;3.25;;;9.10;99.90;;;;;;5012170;28;20041;-49
2021/10/23 03:04:42;;;;;;;4.28;1.45;;;9.10;99.90;;;;;;5010832;28;20495;-45
2021/10/23 03:07:07;;;;;;;12.13;3.45;;;9.10;99.90;;;;;;5010852;28;20018;-49
2021/10/23 03:09:33;;;;;;;3.80;1.70;;;9.10;99.90;;;;;;5010319;28;20034;-48
2021/10/23 03:11:59;;;;;;;4.43;2.00;;;9.20;99.90;;;;;;5011398;28;20509;-52
2021/10/23 03:14:25;;;;;;;7.22;2.42;;;9.20;99.90;;;;;;5011177;28;20033;-53
2021/10/23 03:16:50;;;;;;;7.25;2.20;;;9.20;99.90;;;;;;5010512;28;20021;-47
2021/10/23 03:19:16;;;;;;;4.35;2.10;;;9.30;99.90;;;;;;5010641;28;20026;-46
2021/10/23 03:21:42;;;;;;;2.70;1.95;;;9.30;99.90;;;;;;5010538;28;20025;-50
2021/10/23 03:24:08;;;;;;;4.93;2.28;;;9.40;99.90;;;;;;5010724;28;20498;-48
2021/10/23 03:26:33;;;;;;;4.57;2.00;;;9.30;99.90;;;;;;5009872;28;20116;-53
2021/10/23 03:29:01;;;;;;;3.45;2.03;;;9.40;99.90;;;;;;5011707;28;20494;-53
2021/10/23 03:31:26;;;;;;;4.82;2.30;;;9.40;99.90;;;;;;5010376;28;20030;-51
2021/10/23 03:33:52;;;;;;;4.63;2.45;;;9.70;99.90;;;;;;5010433;28;20041;-46
2021/10/23 03:36:17;;;;;;;4.40;2.33;;;9.60;99.90;;;;;;5009930;28;20029;-50
2021/10/23 03:38:43;;;;;;;6.53;2.17;;;9.50;99.90;;;;;;5010157;28;20071;-53
2021/10/23 03:41:09;;;;;;;8.05;2.55;;;9.40;99.90;;;;;;5010106;28;20021;-47
2021/10/23 03:43:34;;;;;;;5.15;1.95;;;9.30;99.90;;;;;;5010106;28;20179;-52
2021/10/23 03:46:00;;;;;;;5.45;2.70;;;9.20;99.90;;;;;;5009888;28;20052;-46
2021/10/23 03:48:26;;;;;;;7.13;2.20;;;9.20;99.90;;;;;;5009544;28;20042;-48
2021/10/23 03:50:52;;;;;;;5.22;2.75;;;9.20;99.90;;;;;;5009858;28;20018;-49
2021/10/23 03:53:17;;;;;;;7.43;2.97;;;9.10;99.90;;;;;;5010026;28;20040;-51
2021/10/23 03:55:43;;;;;;;7.32;2.50;;;9.00;99.90;;;;;;5010350;28;20060;-46
2021/10/23 03:58:10;;;;;;;2.25;1.80;;;8.90;99.90;;;;;;5009553;28;20048;-49
2021/10/23 04:00:36;;;;;;;5.22;2.08;;;8.90;99.90;;;;;;5009888;28;20025;-46
2021/10/23 04:03:02;;;;;;;6.13;2.63;;;8.80;99.90;;;;;;5009619;28;20022;-50
2021/10/23 04:05:27;;;;;;;5.15;2.17;;;8.80;99.90;;;;;;5009700;28;20558;-52
2021/10/23 04:07:53;;;;;;;7.78;3.28;;;8.80;99.90;;;;;;5009462;28;20084;-50
2021/10/23 04:10:19;;;;;;;5.03;2.53;;;8.80;99.90;;;;;;5009255;28;20048;-47
2021/10/23 04:12:44;;;;;;;7.63;2.53;;;8.90;99.90;;;;;;5009539;28;20113;-49
2021/10/23 04:15:10;;;;;;;5.75;2.13;;;8.90;99.90;;;;;;5009432;28;20544;-43
2021/10/23 04:17:36;;;;;;;9.57;2.40;;;8.90;99.90;;;;;;5009199;28;20552;-47
2021/10/23 04:20:04;;;;;;;6.25;2.78;;;8.80;99.90;;;;;;5009901;28;20026;-49
2021/10/23 04:22:29;;;;;;;5.15;2.47;;;8.70;99.90;;;;;;5009527;28;20050;-45
2021/10/23 04:24:55;;;;;;;8.45;2.50;;;8.70;99.90;;;;;;5009509;28;20069;-49
2021/10/23 04:27:20;;;;;;;4.55;2.28;;;8.70;99.90;;;;;;5009302;28;20407;-46
2021/10/23 04:29:46;;;;;;;11.52;2.55;;;8.60;99.90;;;;;;5009400;28;20034;-49
2021/10/23 04:32:11;;;;;;;5.28;2.35;;;8.60;99.90;;;;;;5009613;28;20022;-46
2021/10/23 04:34:37;;;;;;;7.00;2.33;;;8.60;99.90;;;;;;5009800;28;20032;-47
2021/10/23 04:37:03;;;;;;;8.00;2.40;;;8.70;99.90;;;;;;5009019;28;20034;-49
2021/10/23 04:39:30;;;;;;;5.60;2.08;;;8.70;99.90;;;;;;5009265;28;20069;-43
2021/10/23 04:41:55;;;;;;;2.60;2.10;;;8.60;99.90;;;;;;5009315;28;20127;-47
2021/10/23 04:44:21;;;;;;;14.75;2.90;;;8.50;99.90;;;;;;5009299;28;20057;-48
2021/10/23 04:46:47;;;;;;;5.00;2.58;;;8.40;99.90;;;;;;4992674;28;20042;-48
2021/10/23 04:49:12;;;;;;;5.43;2.72;;;8.40;99.90;;;;;;4993295;28;20084;-46
2021/10/23 04:51:38;;;;;;;5.95;2.78;;;8.30;99.90;;;;;;5009491;28;20034;-48
2021/10/23 04:54:04;;;;;;;6.13;2.40;;;8.30;99.90;;;;;;5009282;28;20032;-47
2021/10/23 04:56:29;;;;;;;5.55;2.10;;;8.30;99.90;;;;;;5008929;28;20108;-48
2021/10/23 04:58:55;;;;;;;5.28;2.70;;;8.40;99.90;;;;;;4992842;28;20026;-51
2021/10/23 05:01:21;;;;;;;5.32;2.42;;;8.40;99.90;;;;;;5009240;28;20436;-48
2021/10/23 05:03:46;;;;;;;3.80;2.28;;;8.30;99.90;;;;;;5009200;28;20036;-48
2021/10/23 05:06:12;;;;;;;11.00;2.97;;;8.30;99.90;;;;;;5011433;28;20113;-48
2021/10/23 05:08:38;;;;;;;4.30;2.72;;;8.40;99.90;;;;;;5012761;28;20030;-48
2021/10/23 05:11:03;;;;;;;8.63;3.03;;;8.30;99.90;;;;;;5012250;28;20038;-46
2021/10/23 05:13:29;;;;;;;5.50;2.67;;;8.20;99.90;;;;;;5013913;28;20108;-46
2021/10/23 05:15:55;;;;;;;6.47;2.17;;;8.20;99.90;;;;;;5012614;28;20025;-47
2021/10/23 05:18:20;;;;;;;6.32;2.28;;;8.10;99.90;;;;;;5012672;28;20018;-46
2021/10/23 05:20:46;;;;;;;3.20;2.03;;;8.10;99.90;;;;;;5014097;28;20029;-45
2021/10/23 05:23:11;;;;;;;7.55;3.10;;;8.00;99.90;;;;;;5012520;28;20487;-46
2021/10/23 05:28:13;;;;;;;21.67;10.43;;;8.00;99.90;;;;;;5011599;28;20569;-56
2021/10/23 05:30:39;;;;;;;32.58;11.95;;;8.00;99.90;;;;;;5013629;28;20026;-56
2021/10/23 05:33:05;;;;;;;21.25;9.52;;;7.90;99.90;;;;;;5012334;28;20498;-54
2021/10/23 05:35:31;;;;;;;20.45;9.43;;;7.90;99.90;;;;;;5012152;28;20457;-58
2021/10/23 05:37:56;;;;;;;12.10;4.05;;;7.90;99.90;;;;;;5011316;28;20026;-57
2021/10/23 05:40:22;;;;;;;7.15;2.75;;;7.90;99.90;;;;;;5014299;28;20029;-56
2021/10/23 05:42:49;;;;;;;6.55;3.08;;;7.90;99.90;;;;;;5012062;28;20506;-55
2021/10/23 05:45:14;;;;;;;4.18;2.55;;;7.90;99.90;;;;;;5012185;28;20479;-54
2021/10/23 05:47:40;;;;;;;4.97;2.50;;;7.80;99.90;;;;;;5011159;28;20079;-55
2021/10/23 05:50:07;;;;;;;7.32;3.35;;;7.80;99.90;;;;;;5012020;28;20033;-55
2021/10/23 05:52:34;;;;;;;5.38;3.30;;;7.70;99.90;;;;;;5012013;28;20471;-57
2021/10/23 05:54:59;;;;;;;6.45;2.65;;;7.80;99.90;;;;;;5011826;28;20037;-57
2021/10/23 05:57:25;;;;;;;5.38;2.67;;;7.80;99.90;;;;;;5011227;28;20030;-52
2021/10/23 05:59:51;;;;;;;5.13;2.80;;;7.70;99.90;;;;;;5011985;28;20105;-45
2021/10/23 06:02:28;;;;;;;6.78;2.70;;;7.70;99.90;;;;;;5012583;28;20237;-46
2021/10/23 06:04:55;;;;;;;5.63;3.42;;;7.80;99.90;;;;;;5012181;28;20502;-49
2021/10/23 06:07:23;;;;;;;5.40;3.15;;;7.80;99.90;;;;;;5011520;28;20038;-45
2021/10/23 06:09:49;;;;;;;7.75;5.32;;;7.70;99.90;;;;;;5011002;28;20088;-46
2021/10/23 06:12:14;;;;;;;8.00;3.67;;;7.70;99.90;;;;;;5011744;28;20026;-45
2021/10/23 06:14:40;;;;;;;7.97;3.45;;;7.70;99.90;;;;;;5011657;28;20026;-54
2021/10/23 06:17:06;;;;;;;12.00;4.95;;;7.60;99.90;;;;;;5010498;28;20121;-49
2021/10/23 06:19:33;;;;;;;5.53;4.43;;;7.50;99.90;;;;;;4994821;28;20037;-50
2021/10/23 06:21:59;;;;;;;7.03;3.65;;;7.50;99.90;;;;;;5011627;28;20394;-45
2021/10/23 06:24:25;;;;;;;5.15;3.25;;;7.60;99.90;;;;;;4995492;28;20406;-50
2021/10/23 06:26:50;;;;;;;5.20;3.50;;;7.60;99.90;;;;;;5010397;28;20083;-48
2021/10/23 06:29:16;;;;;;;3.75;3.45;;;7.60;99.90;;;;;;5011325;28;20121;-48
2021/10/23 06:31:41;;;;;;;6.40;4.32;;;7.60;99.90;;;;;;5012804;28;20026;-47
2021/10/23 06:34:07;;;;;;;6.25;3.97;;;7.80;99.90;;;;;;5011152;28;20030;-46
2021/10/23 06:36:32;;;;;;;7.82;6.00;;;8.00;99.90;;;;;;5010349;28;20041;-49
2021/10/23 06:38:58;;;;;;;5.78;4.45;;;8.10;99.90;;;;;;5010951;28;20024;-49
2021/10/23 06:41:23;;;;;;;6.97;4.30;;;8.10;99.90;;;;;;5010890;28;20032;-50
2021/10/23 06:43:49;;;;;;;7.10;3.78;;;8.10;99.90;;;;;;5010728;28;20076;-46
2021/10/23 06:46:14;;;;;;;7.90;3.88;;;8.20;99.90;;;;;;5010151;28;20013;-50
2021/10/23 06:48:40;;;;;;;9.20;4.00;;;8.20;99.90;;;;;;5011855;28;20091;-51
2021/10/23 06:51:05;;;;;;;14.77;6.63;;;8.20;99.90;;;;;;5010812;28;20030;-47
2021/10/23 06:53:31;;;;;;;10.18;6.40;;;8.20;99.90;;;;;;5010854;28;20105;-48
2021/10/23 06:55:56;;;;;;;7.07;5.10;;;8.10;99.90;;;;;;5011873;28;20025;-48
2021/10/23 06:58:22;;;;;;;14.68;8.40;;;8.10;99.90;;;;;;5009929;28;20255;-49
2021/10/23 07:00:47;;;;;;;10.75;6.25;;;8.20;99.90;;;;;;5010824;28;20091;-46
2021/10/23 07:03:16;;;;;;;11.05;6.65;;;8.30;99.90;;;;;;5011925;28;20025;-49
2021/10/23 07:05:43;;;;;;;11.88;7.10;;;8.40;99.90;;;;;;5010483;28;20048;-51
2021/10/23 07:08:08;;;;;;;10.05;4.95;;;8.40;99.90;;;;;;5009737;28;20026;-50
2021/10/23 07:10:34;;;;;;;11.70;5.55;;;8.40;99.90;;;;;;5008713;28;20030;-45
2021/10/23 07:13:02;;;;;;;11.00;5.07;;;8.40;99.90;;;;;;5010371;28;20406;-49
2021/10/23 07:15:28;;;;;;;6.78;4.53;;;8.50;99.90;;;;;;5011553;28;20033;-45
2021/10/23 07:17:54;;;;;;;14.65;5.13;;;8.50;99.90;;;;;;5009344;28;20053;-47
2021/10/23 07:20:19;;;;;;;9.82;5.20;;;8.50;99.90;;;;;;5010354;28;20491;-49
2021/10/23 07:22:45;;;;;;;11.68;6.03;;;8.60;99.90;;;;;;5010114;28;20026;-50
2021/10/23 07:25:10;;;;;;;12.65;5.85;;;8.50;99.90;;;;;;5010081;28;20018;-46
2021/10/23 07:27:36;;;;;;;20.38;5.88;;;8.60;99.90;;;;;;5009200;28;20392;-47
2021/10/23 07:30:08;;;;;;;9.40;5.80;;;8.60;99.90;;;;;;5009069;28;20062;-50
2021/10/23 07:32:34;;;;;;;12.60;5.32;;;8.70;99.90;;;;;;4994600;28;20021;-51
2021/10/23 07:34:59;;;;;;;9.20;5.78;;;8.80;99.90;;;;;;5010062;28;20052;-49
2021/10/23 07:37:25;;;;;;;10.07;5.38;;;8.90;99.90;;;;;;5009044;28;20022;-52
2021/10/23 07:39:50;;;;;;;19.77;6.32;;;8.90;99.90;;;;;;5009903;28;20022;-47
2021/10/23 07:42:16;;;;;;;8.70;5.65;;;9.00;99.90;;;;;;5008150;28;20434;-51
2021/10/23 07:44:42;;;;;;;13.20;6.30;;;9.10;99.90;;;;;;5009750;28;20433;-49
2021/10/23 07:47:08;;;;;;;12.07;5.97;;;9.20;99.90;;;;;;5008963;28;20030;-50
2021/10/23 07:49:33;;;;;;;10.02;5.43;;;9.30;99.90;;;;;;5010987;28;20149;-48
2021/10/23 07:51:59;;;;;;;10.45;5.53;;;9.30;99.90;;;;;;5009675;28;20450;-51
2021/10/23 07:54:24;;;;;;;10.27;6.95;;;9.40;99.90;;;;;;5009496;28;20551;-52
2021/10/23 07:56:50;;;;;;;10.93;6.10;;;9.50;99.90;;;;;;5008746;28;20493;-50
2021/10/23 07:59:16;;;;;;;12.55;6.38;;;9.70;99.90;;;;;;5009670;28;20045;-50
2021/10/23 08:01:42;;;;;;;11.02;6.50;;;9.80;99.90;;;;;;5009440;28;20026;-51
2021/10/23 08:04:07;;;;;;;11.70;5.97;;;9.90;99.90;;;;;;5009553;28;20029;-52
2021/10/23 08:06:33;;;;;;;16.70;6.88;;;10.00;99.90;;;;;;5009095;28;20029;-49
2021/10/23 08:08:58;;;;;;;10.32;5.40;;;10.00;99.90;;;;;;5009423;28;20075;-49
2021/10/23 08:11:25;;;;;;;10.88;5.70;;;10.10;99.90;;;;;;5009599;28;20045;-46
2021/10/23 08:13:50;;;;;;;12.82;6.53;;;10.30;99.90;;;;;;5009746;28;20044;-46
2021/10/23 08:16:16;;;;;;;14.18;6.10;;;10.60;99.90;;;;;;5009269;28;20025;-47
2021/10/23 08:18:41;;;;;;;9.80;6.07;;;10.70;99.90;;;;;;4993297;28;20369;-49
2021/10/23 08:21:07;;;;;;;12.75;6.70;;;10.80;99.90;;;;;;5009289;28;20099;-49
2021/10/23 08:23:33;;;;;;;13.43;6.20;;;10.90;99.90;;;;;;5010477;28;20029;-46
2021/10/23 08:25:58;;;;;;;12.80;6.03;;;10.90;99.90;;;;;;5010718;28;20157;-46
2021/10/23 08:28:24;;;;;;;12.55;5.90;;;11.00;99.90;;;;;;5008799;28;20032;-48
2021/10/23 08:30:50;;;;;;;12.27;6.25;;;11.00;99.90;;;;;;5009182;28;20401;-48
2021/10/23 08:33:16;;;;;;;10.50;5.78;;;11.00;99.90;;;;;;5009373;28;20386;-46
2021/10/23 08:35:42;;;;;;;12.73;6.43;;;11.20;99.90;;;;;;5010494;28;20567;-50
2021/10/23 08:38:08;;;;;;;9.25;5.55;;;11.20;99.90;;;;;;5008521;28;20108;-51
2021/10/23 08:40:33;;;;;;;12.18;5.38;;;11.20;99.90;;;;;;5009282;28;20022;-48
2021/10/23 08:42:59;;;;;;;7.95;5.30;;;11.10;99.90;;;;;;5013190;28;20022;-46
2021/10/23 08:45:25;;;;;;;14.50;5.50;;;11.00;99.90;;;;;;5014389;28;20076;-47
2021/10/23 08:47:51;;;;;;;10.40;6.05;;;11.00;99.90;;;;;;5012292;28;20026;-46
2021/10/23 08:50:19;;;;;;;12.02;6.07;;;11.00;99.90;;;;;;5012954;28;20084;-48
2021/10/23 08:52:47;;;;;;;11.35;5.18;;;11.00;99.90;;;;;;5012917;28;20034;-50
2021/10/23 08:55:13;;;;;;;9.85;5.85;;;11.10;99.90;;;;;;5012925;28;20056;-48
2021/10/23 08:57:39;;;;;;;8.15;5.25;;;11.10;99.90;;;;;;5012144;28;20472;-49
2021/10/23 09:00:06;;;;;;;11.40;5.53;;;11.00;99.90;;;;;;5012607;28;20025;-49
2021/10/23 09:02:31;;;;;;;8.75;5.45;;;11.10;99.90;;;;;;5012777;28;20026;-51
2021/10/23 09:04:58;;;;;;;13.88;5.32;;;11.10;99.90;;;;;;5012849;28;20029;-47
2021/10/23 09:07:24;;;;;;;10.48;5.30;;;11.10;99.90;;;;;;5011829;28;20026;-46
2021/10/23 09:10:24;;;;;;;10.68;5.30;;;11.10;99.90;;;;;;5011327;28;20026;-48
2021/10/23 09:13:05;;;;;;;11.65;5.43;;;11.20;99.90;;;;;;5000406;28;20306;-48
2021/10/23 09:15:36;;;;;;;15.88;4.90;;;11.50;99.90;;;;;;5012424;28;20116;-55
2021/10/23 09:18:03;;;;;;;14.15;7.45;;;11.70;99.90;;;;;;5011693;28;20102;-51
2021/10/23 09:20:35;;;;;;;13.45;8.05;;;11.70;99.90;;;;;;5012414;28;20606;-56
2021/10/23 09:23:00;;;;;;;30.67;16.55;;;11.70;99.90;;;;;;5012141;28;20037;-55
2021/10/23 09:25:27;;;;;;;9.75;5.07;;;11.70;99.90;;;;;;5012188;28;20030;-54
2021/10/23 09:27:56;;;;;;;6.25;3.97;;;11.80;99.90;;;;;;5011125;28;20068;-47
2021/10/23 09:30:29;;;;;;;8.30;5.00;;;11.90;99.90;;;;;;5012261;28;20026;-49
2021/10/23 09:32:57;;;;;;;7.28;4.70;;;12.00;99.90;;;;;;5012372;28;20029;-50
2021/10/23 09:35:23;;;;;;;11.65;4.68;;;12.20;99.90;;;;;;5011897;28;20053;-53
2021/10/23 09:37:54;;;;;;;12.88;4.35;;;12.20;99.90;;;;;;5011080;28;20022;-56
2021/10/23 09:40:21;;;;;;;6.07;3.58;;;12.30;99.90;;;;;;4995935;28;20022;-51
2021/10/23 09:43:02;;;;;;;11.32;4.15;;;12.40;99.90;;;;;;5010404;28;20129;-53
2021/10/23 09:45:28;;;;;;;6.60;3.90;;;12.50;99.90;;;;;;5012106;28;20045;-53
2021/10/23 09:48:04;;;;;;;8.25;3.10;;;12.50;99.90;;;;;;5012339;28;20026;-51
2021/10/23 09:50:30;;;;;;;6.43;2.88;;;12.60;99.90;;;;;;5012046;28;20407;-47
2021/10/23 09:53:07;;;;;;;5.18;3.03;;;12.80;99.90;;;;;;5010408;28;20022;-50
2021/10/23 09:55:53;;;;;;;6.22;3.05;;;13.00;99.90;;;;;;5011707;28;20530;-52
2021/10/23 09:58:25;;;;;;;;;;;13.40;99.90;;;;;;5011303;28;20088;-48
2021/10/23 10:00:55;;;;;;;9.75;2.80;;;13.70;99.90;;;;;;5011752;28;19928;-57
2021/10/23 10:03:24;;;;;;;7.45;3.35;;;14.10;99.90;;;;;;5011844;28;20414;-47
2021/10/23 10:05:57;;;;;;;5.82;3.10;;;14.30;99.90;;;;;;5012703;28;20132;-50
2021/10/23 10:08:23;;;;;;;7.90;3.45;;;14.30;99.90;;;;;;5010625;28;20037;-46
2021/10/23 10:10:50;;;;;;;6.32;3.10;;;14.30;99.90;;;;;;5011430;28;20026;-46
2021/10/23 10:13:19;;;;;;;6.82;3.05;;;14.40;99.90;;;;;;5011254;28;20025;-50
2021/10/23 10:15:47;;;;;;;7.97;3.72;;;14.50;99.90;;;;;;5012299;28;20097;-48
2021/10/23 10:18:15;;;;;;;6.38;3.00;;;14.40;99.90;;;;;;5010413;28;20032;-49
2021/10/23 10:20:44;;;;;;;6.15;3.20;;;14.40;99.90;;;;;;5012527;28;20021;-49
2021/10/23 10:23:11;;;;;;;9.88;3.35;;;14.50;99.90;;;;;;5011116;28;20503;-49
2021/10/23 10:25:38;;;;;;;7.00;3.67;;;14.70;99.90;;;;;;4994818;28;20487;-47
2021/10/23 10:28:11;;;;;;;31.90;16.50;;;14.80;99.90;;;;;;5010453;28;20036;-51
2021/10/23 10:30:39;;;;;;;15.57;9.18;;;14.80;99.80;;;;;;5011234;28;20121;-49
2021/10/23 10:33:40;;;;;;;16.52;9.15;;;14.70;99.90;;;;;;5012220;28;20127;-47
2021/10/23 10:39:25;;;;;;;5.68;3.10;;;14.50;99.90;;;;;;4978800;28;20399;-49
2021/10/23 10:45:30;;;;;;;5.20;2.42;;;14.30;99.90;;;;;;5011279;28;20048;-47
2021/10/23 10:48:04;;;;;;;;;;;14.20;99.90;;;;;;4995426;28;20036;-46
2021/10/23 10:50:57;;;;;;;5.00;2.72;;;14.20;99.90;;;;;;5012169;28;19905;-47
2021/10/23 10:53:27;;;;;;;6.65;3.00;;;14.20;99.90;;;;;;4989114;28;20040;-47
2021/10/23 10:55:54;;;;;;;11.25;2.90;;;14.20;99.90;;;;;;5010611;28;20033;-52
2021/10/23 10:58:40;;;;;;;10.20;3.05;;;14.10;99.90;;;;;;5009999;28;20018;-48
2021/10/23 11:01:21;;;;;;;5.80;2.83;;;14.00;99.90;;;;;;5010339;28;20057;-50
2021/10/23 11:04:01;;;;;;;12.38;2.92;;;13.90;99.90;;;;;;5010306;28;20454;-49
2021/10/23 11:06:35;;;;;;;8.50;2.75;;;13.90;99.90;;;;;;5009626;28;20033;-48
2021/10/23 11:09:16;;;;;;;4.80;2.60;;;13.90;99.90;;;;;;5010809;28;20033;-51
2021/10/23 11:11:48;;;;;;;7.63;2.63;;;13.80;99.90;;;;;;5011647;28;20527;-48
2021/10/23 11:14:33;;;;;;;8.98;3.85;;;13.90;99.90;;;;;;5010352;28;20541;-46
2021/10/23 11:17:14;;;;;;;10.40;3.77;;;13.80;99.90;;;;;;5011087;28;20018;-47
2021/10/23 11:19:41;;;;;;;5.32;2.83;;;13.60;99.90;;;;;;5010016;28;20109;-48
2021/10/23 11:22:18;;;;;;;7.35;3.22;;;13.70;99.90;;;;;;4994008;28;20064;-46
2021/10/23 11:24:49;;;;;;;5.45;3.10;;;13.60;99.90;;;;;;5011540;28;20026;-48
2021/10/23 11:27:27;;;;;;;10.68;3.95;;;13.60;99.90;;;;;;5010543;28;20041;-48
2021/10/23 11:30:07;;;;;;;5.70;2.55;;;13.60;99.90;;;;;;5021463;23;20050;-40
2021/10/23 11:32:34;;;;;;;9.52;3.78;;;13.70;99.90;;;;;;4975456;28;20033;-43
2021/10/23 11:35:02;;;;;;;6.50;2.72;;;13.60;99.90;;;;;;4991441;28;20034;-50
2021/10/23 11:37:27;;;;;;;6.18;2.40;;;13.60;99.90;;;;;;4990657;28;20023;-41
2021/10/23 11:39:58;;;;;;;7.43;2.85;;;13.60;99.90;;;;;;4990734;28;20022;-46
2021/10/23 11:42:31;;;;;;;5.63;2.15;;;13.70;99.90;;;;;;4988706;28;20026;-53
2021/10/23 11:45:12;;;;;;;7.97;2.40;;;13.70;99.90;;;;;;4991850;28;20022;-47
2021/10/23 11:47:37;;;;;;;5.03;2.20;;;13.80;99.90;;;;;;4991224;28;20022;-46
2021/10/23 11:50:42;;;;;;;8.52;3.60;;;13.80;99.90;;;;;;4992210;28;20052;-42
2021/10/23 11:53:30;;;;;;;6.20;2.47;;;13.90;99.90;;;;;;4989363;28;20039;-38
2021/10/23 11:56:01;;;;;;;5.78;2.78;;;13.80;99.90;;;;;;4990845;28;20030;-44
2021/10/23 11:58:29;;;;;;;7.30;2.63;;;13.70;99.90;;;;;;4991701;28;20456;-45
2021/10/23 12:01:03;;;;;;;5.32;2.33;;;13.70;99.90;;;;;;4991973;28;20092;-41
2021/10/23 12:03:31;;;;;;;5.00;2.58;;;13.80;99.90;;;;;;4990647;28;20467;-43
2021/10/23 12:05:57;;;;;;;4.88;2.33;;;13.90;99.90;;;;;;4991364;28;20400;-50
2021/10/23 12:08:30;;;;;;;5.10;2.58;;;13.90;99.90;;;;;;4990766;28;20037;-52
2021/10/23 12:11:12;;;;;;;6.03;2.25;;;14.10;99.90;;;;;;4991750;28;20025;-44
2021/10/23 12:13:50;;;;;;;7.38;2.50;;;14.10;99.90;;;;;;4991492;28;20015;-52
2021/10/23 12:16:26;;;;;;;3.17;1.92;;;14.10;99.90;;;;;;4990129;28;20538;-46
2021/10/23 12:19:03;;;;;;;6.10;2.50;;;14.20;99.90;;;;;;4990433;28;20421;-48
2021/10/23 12:21:45;;;;;;;7.55;2.15;;;14.20;99.90;;;;;;4991235;28;20041;-49
2021/10/23 12:24:29;;;;;;;8.10;2.13;;;14.20;99.90;;;;;;4991236;28;20652;-46
2021/10/23 12:27:18;;;;;;;5.00;1.75;;;14.10;99.90;;;;;;4990776;28;20133;-45
2021/10/23 12:29:51;;;;;;;2.47;1.75;;;14.10;99.70;;;;;;4991195;28;20380;-49
2021/10/23 12:32:20;;;;;;;3.90;1.60;;;13.90;99.00;;;;;;4991235;28;20022;-48
2021/10/23 12:34:48;;;;;;;3.17;1.48;;;13.90;98.30;;;;;;4990840;28;20117;-46
2021/10/23 12:37:14;;;;;;;4.55;1.70;;;13.70;98.50;;;;;;4990791;28;20019;-47
2021/10/23 12:39:40;;;;;;;2.42;1.45;;;13.60;98.90;;;;;;4991391;28;20214;-48
2021/10/23 12:42:06;;;;;;;2.53;1.40;;;13.60;98.80;;;;;;4991271;28;20409;-46
2021/10/23 12:44:32;;;;;;;3.97;1.73;;;13.60;99.40;;;;;;4991455;28;20029;-47
2021/10/23 12:46:57;;;;;;;2.70;1.58;;;13.70;98.60;;;;;;4990755;28;20491;-51
2021/10/23 12:49:23;;;;;;;6.53;1.77;;;13.70;97.60;;;;;;4991167;28;20088;-46
2021/10/23 12:51:50;;;;;;;2.95;1.30;;;13.70;97.90;;;;;;4991310;28;20022;-44
2021/10/23 12:54:17;;;;;;;6.55;2.22;;;13.60;98.10;;;;;;4991365;28;20049;-48
2021/10/23 12:56:44;;;;;;;6.05;1.75;;;13.60;98.30;;;;;;4991091;28;20022;-50
2021/10/23 12:59:10;;;;;;;3.83;1.55;;;13.60;98.80;;;;;;4991538;28;20368;-43
2021/10/23 13:01:36;;;;;;;2.53;1.33;;;13.90;99.20;;;;;;4991251;28;20022;-45
2021/10/23 13:04:03;;;;;;;7.20;1.52;;;13.70;98.60;;;;;;4992109;28;20037;-53
2021/10/23 13:06:28;;;;;;;5.97;1.42;;;13.70;97.70;;;;;;4991663;28;20080;-51
2021/10/23 13:08:54;;;;;;;5.88;1.65;;;13.60;95.90;;;;;;4990496;28;20031;-42
2021/10/23 13:11:19;;;;;;;6.90;1.63;;;13.60;96.30;;;;;;4988988;28;20014;-43